Strona główna
METAR-TAF:

METAR-TAF

Lotnisko :

Ho Chi Minh, Wietnam

Port lotniczy Tân Sơn Nhất w Ho Chi Minh

Szerokość geograficzna: 10-49N, Długość geograficzna: 106-40E, wysokość: 19 m

Aktualna obserwacja pogody

Raport powstał 41 minut temu, godzina 05:00 UTC
Wiatr 2 kt z kierunków zmiennych
Temperatura 30°C
Wilgotność 70%
Ciśnienie 1009 hPa
Widzialność: 2500 m
Rozproszone chmury na wysokości 1700 ft
Rozproszone chmury na wysokości 5000 ft
zamglenie

METAR: VVTS 180500Z VRB02KT 2500 BR SCT017 SCT050 30/24 Q1009 BECMG TL0620 5000 BR

czas: 12:41 (05:41 UTC)

Prognoza

Raport powstał 6 godziny i 41 minut temu, godzina 23:00 UTC
Prognoza ważna od 18 godzina 00 UTC do 19 godzina 06 UTC
Wiatr 6 kt od zachodnio-północny zachód
Widzialność 10 km lub więcej
Rozproszone chmury na wysokości 1700 ft
Rozproszone chmury na wysokości 5000 ft

TAF: VVTS 172300Z 1800/1906 30006KT 9999 SCT017 SCT050

Obserwacja i prognoza pogody dla ponad 4000 lotnisk (raport METAR i TAF).

Dostępne stacje oznaczono żółtymi i czerwonymi punktami na mapie.

Najedź kursorem aby zobaczyć nazwę stacji.

Kliknij aby zobaczyć obserwacje i prognozy pogody.

Aby zmienić mapę: kliknij na zielony przycisk z czarnym krzyżykiem, aby powiększyć; na zielony przycisk z myślnikiem, aby pomniejszyć; na zielone strzałki, aby przejść do map sąsiednich.


METAR-TAF: